createdAt,value
2023-03-19T00:00:29.451Z,99101.59
2023-03-19T00:03:36.114Z,99101.63
2023-03-19T00:06:42.286Z,99101.33
2023-03-19T00:09:48.468Z,99101.90
2023-03-19T00:12:52.876Z,99101.33
2023-03-19T00:15:58.835Z,99101.16
2023-03-19T00:19:05.202Z,99103.24
2023-03-19T00:22:09.888Z,99104.68
2023-03-19T00:25:15.912Z,99105.00
2023-03-19T00:28:21.853Z,99105.45
2023-03-19T00:31:29.351Z,99106.28
2023-03-19T00:34:35.129Z,99107.32
2023-03-19T00:37:42.088Z,99111.51
2023-03-19T00:40:48.678Z,99114.21
2023-03-19T00:43:57.487Z,99113.90
2023-03-19T00:47:03.293Z,99106.08
2023-03-19T00:50:11.167Z,99102.50
2023-03-19T00:53:17.469Z,99106.16
2023-03-19T00:56:23.247Z,99107.93
2023-03-19T00:59:29.252Z,99108.08
2023-03-19T01:02:35.588Z,99106.16
2023-03-19T01:05:39.710Z,99098.25
2023-03-19T01:08:45.664Z,99098.12
2023-03-19T01:11:51.449Z,99098.17
2023-03-19T01:14:57.277Z,99097.35
2023-03-19T01:18:03.245Z,99096.31
2023-03-19T01:21:10.935Z,99096.20
2023-03-19T01:24:17.190Z,99099.00
2023-03-19T01:27:23.109Z,99096.66
2023-03-19T01:30:29.020Z,99094.59
2023-03-19T01:33:35.035Z,99093.74
2023-03-19T01:36:40.939Z,99093.44
2023-03-19T01:39:46.797Z,99091.94
2023-03-19T01:42:57.979Z,99099.50
2023-03-19T01:46:08.569Z,99100.84
2023-03-19T01:49:15.380Z,99104.25
2023-03-19T01:52:22.710Z,99104.33
2023-03-19T01:55:28.633Z,99108.16
2023-03-19T01:58:34.557Z,99110.50
2023-03-19T02:01:45.081Z,99110.20
2023-03-19T02:04:55.819Z,99103.55
2023-03-19T02:08:05.341Z,99098.98
2023-03-19T02:11:11.804Z,99099.95
2023-03-19T02:14:16.299Z,99104.27
2023-03-19T02:17:23.285Z,99108.91
2023-03-19T02:20:33.962Z,99105.17
2023-03-19T02:23:46.783Z,99105.96
2023-03-19T02:26:53.460Z,99108.15
2023-03-19T02:30:01.390Z,99109.27
2023-03-19T02:33:08.584Z,99111.70
2023-03-19T02:36:19.393Z,99113.17
2023-03-19T02:39:31.004Z,99119.88
2023-03-19T02:42:36.865Z,99121.65
2023-03-19T02:45:42.746Z,99125.41
2023-03-19T02:48:48.593Z,99121.73
2023-03-19T02:51:54.534Z,99122.23
2023-03-19T02:55:00.286Z,99124.46
2023-03-19T02:58:06.156Z,99122.84
2023-03-19T03:01:12.067Z,99123.48
2023-03-19T03:04:17.973Z,99123.81
2023-03-19T03:07:23.925Z,99123.20
2023-03-19T03:10:30.574Z,99123.63
2023-03-19T03:13:37.442Z,99123.38
2023-03-19T03:16:43.787Z,99124.01
2023-03-19T03:19:47.977Z,99124.16
2023-03-19T03:22:53.784Z,99125.30
2023-03-19T03:25:59.537Z,99120.88
2023-03-19T03:29:05.772Z,99116.71
2023-03-19T03:32:12.164Z,99118.58
2023-03-19T03:35:21.961Z,99122.07
2023-03-19T03:38:28.058Z,99123.30
2023-03-19T03:41:33.897Z,99121.74
2023-03-19T03:44:39.947Z,99123.05
2023-03-19T03:47:46.339Z,99125.40
2023-03-19T03:50:50.533Z,99128.36
2023-03-19T03:53:56.387Z,99130.92
2023-03-19T03:57:03.598Z,99133.38
2023-03-19T04:00:13.215Z,99132.24
2023-03-19T04:03:19.629Z,99132.68
2023-03-19T04:06:28.593Z,99133.30
2023-03-19T04:09:34.371Z,99131.78
2023-03-19T04:12:41.542Z,99129.21
2023-03-19T04:15:48.000Z,99136.42
2023-03-19T04:18:52.154Z,99139.02
2023-03-19T04:21:57.914Z,99140.45
2023-03-19T04:25:05.120Z,99141.82
2023-03-19T04:28:14.268Z,99141.47
2023-03-19T04:31:20.224Z,99143.59
2023-03-19T04:34:26.174Z,99145.93
2023-03-19T04:37:32.107Z,99146.09
2023-03-19T04:40:37.972Z,99148.04
2023-03-19T04:43:43.928Z,99149.05
2023-03-19T04:46:49.773Z,99150.06
2023-03-19T04:49:55.738Z,99150.96
2023-03-19T04:53:01.700Z,99149.46
2023-03-19T04:56:09.084Z,99144.49
2023-03-19T04:59:14.843Z,99142.58
2023-03-19T05:02:20.898Z,99139.96
2023-03-19T05:05:27.072Z,99137.66
2023-03-19T05:08:33.084Z,99139.98
2023-03-19T05:11:39.396Z,99139.57
2023-03-19T05:14:43.820Z,99137.50
2023-03-19T05:17:50.190Z,99142.16
2023-03-19T05:20:54.788Z,99147.11
2023-03-19T05:24:00.674Z,99144.84
2023-03-19T05:27:07.606Z,99142.92
2023-03-19T05:30:16.074Z,99137.88
2023-03-19T05:33:22.676Z,99137.90
2023-03-19T05:36:29.221Z,99138.17
2023-03-19T05:39:35.390Z,99133.21
2023-03-19T05:42:41.244Z,99132.28
2023-03-19T05:45:51.469Z,99126.84
2023-03-19T05:48:57.464Z,99125.64
2023-03-19T05:52:03.312Z,99121.60
2023-03-19T05:55:11.143Z,99116.98
2023-03-19T05:58:16.997Z,99115.55
2023-03-19T06:01:23.264Z,99117.20
2023-03-19T06:04:29.200Z,99116.44
2023-03-19T06:07:35.060Z,99120.50
2023-03-19T06:10:40.913Z,99121.09
2023-03-19T06:13:47.328Z,99122.19
2023-03-19T06:16:53.342Z,99118.36
2023-03-19T06:19:59.096Z,99117.13
2023-03-19T06:23:05.059Z,99116.84
2023-03-19T06:26:11.036Z,99115.53
2023-03-19T06:29:16.983Z,99114.59
2023-03-19T06:32:22.950Z,99112.39
2023-03-19T06:35:29.282Z,99117.19
2023-03-19T06:38:33.466Z,99122.05
2023-03-19T06:41:39.189Z,99128.37
2023-03-19T06:44:45.161Z,99129.80
2023-03-19T06:47:53.510Z,99129.48
2023-03-19T06:50:59.718Z,99136.34
2023-03-19T06:54:06.091Z,99144.02
2023-03-19T06:57:10.422Z,99138.42
2023-03-19T07:00:18.709Z,99136.20
2023-03-19T07:03:24.483Z,99132.33
2023-03-19T07:06:30.435Z,99130.45
2023-03-19T07:09:36.609Z,99136.06
2023-03-19T07:12:42.388Z,99140.07
2023-03-19T07:15:48.319Z,99137.73
2023-03-19T07:18:54.330Z,99132.21
2023-03-19T07:22:00.071Z,99133.83
2023-03-19T07:25:06.736Z,99134.73
2023-03-19T07:28:12.564Z,99130.00
2023-03-19T07:31:18.780Z,99130.39
2023-03-19T07:34:23.243Z,99130.36
2023-03-19T07:37:29.108Z,99128.48
2023-03-19T07:40:35.244Z,99124.63
2023-03-19T07:43:39.797Z,99127.02
2023-03-19T07:46:45.855Z,99125.17
2023-03-19T07:49:51.657Z,99126.35
2023-03-19T07:52:57.565Z,99121.64
2023-03-19T07:56:03.529Z,99116.33
2023-03-19T07:59:09.407Z,99113.70
2023-03-19T08:02:16.510Z,99105.44
2023-03-19T08:05:22.624Z,99105.74
2023-03-19T08:08:28.486Z,99102.73
2023-03-19T08:11:34.261Z,99104.10
2023-03-19T08:14:40.016Z,99099.18
2023-03-19T08:17:46.055Z,99100.80
2023-03-19T08:20:51.896Z,99095.94
2023-03-19T08:23:57.767Z,99090.30
2023-03-19T08:27:03.975Z,99086.90
2023-03-19T08:30:12.357Z,99084.80
2023-03-19T08:33:18.543Z,99083.73
2023-03-19T08:36:22.830Z,99086.45
2023-03-19T08:39:29.377Z,99085.38
2023-03-19T08:42:35.704Z,99083.94
2023-03-19T08:45:39.892Z,99081.54
2023-03-19T08:48:46.458Z,99079.34
2023-03-19T08:51:52.320Z,99072.31
2023-03-19T08:54:58.381Z,99078.29
2023-03-19T08:58:04.649Z,99081.12
2023-03-19T09:01:10.867Z,99079.63
2023-03-19T09:04:16.835Z,99081.29
2023-03-19T09:07:22.760Z,99082.77
2023-03-19T09:10:28.894Z,99087.17
2023-03-19T09:13:35.111Z,99090.70
2023-03-19T09:16:39.480Z,99083.45
2023-03-19T09:19:45.339Z,99084.88
2023-03-19T09:22:51.297Z,99084.57
2023-03-19T09:25:57.359Z,99081.00
2023-03-19T09:29:03.689Z,99083.61
2023-03-19T09:32:08.536Z,99082.53
2023-03-19T09:35:14.734Z,99076.46
2023-03-19T09:38:19.149Z,99074.89
2023-03-19T09:41:34.839Z,99070.10
2023-03-19T09:44:44.381Z,99064.98
2023-03-19T09:47:54.775Z,99066.41
2023-03-19T09:51:04.588Z,99062.89
2023-03-19T09:54:23.873Z,99058.02
2023-03-19T09:57:30.029Z,99060.23
2023-03-19T10:00:37.111Z,99057.85
2023-03-19T10:03:54.460Z,99050.71
2023-03-19T10:07:08.647Z,99046.93
2023-03-19T10:10:48.610Z,99041.48
2023-03-19T10:14:05.197Z,99036.00
2023-03-19T10:17:20.759Z,99039.10
2023-03-19T10:20:34.751Z,99039.95
2023-03-19T10:23:46.918Z,99033.34
2023-03-19T10:26:58.035Z,99027.42
2023-03-19T10:30:07.147Z,99028.15
2023-03-19T10:33:23.512Z,99029.89
2023-03-19T10:36:34.694Z,99025.67
2023-03-19T10:39:41.803Z,99023.52
2023-03-19T10:43:04.085Z,99013.29
2023-03-19T10:46:15.757Z,99006.89
2023-03-19T10:49:21.538Z,99004.89
2023-03-19T10:52:32.140Z,98999.04
2023-03-19T10:55:38.097Z,98991.73
2023-03-19T10:58:56.760Z,98994.11
2023-03-19T11:02:16.501Z,98996.77
2023-03-19T11:05:31.907Z,98989.67
2023-03-19T11:08:40.191Z,98984.58
2023-03-19T11:11:50.838Z,98978.53
2023-03-19T11:14:59.469Z,98976.27
2023-03-19T11:18:17.029Z,98968.54
2023-03-19T11:21:30.319Z,98964.50
2023-03-19T11:24:40.519Z,98963.18
2023-03-19T11:27:48.136Z,98956.50
2023-03-19T11:31:03.752Z,98950.34
2023-03-19T11:34:30.981Z,98953.67
2023-03-19T11:37:52.196Z,98955.02
2023-03-19T11:41:07.174Z,98950.05
2023-03-19T11:44:21.017Z,98943.05
2023-03-19T11:47:36.393Z,98942.46
2023-03-19T11:50:50.576Z,98933.05
2023-03-19T11:54:06.665Z,98928.16
2023-03-19T11:57:20.036Z,98921.23
2023-03-19T12:00:34.023Z,98917.58
2023-03-19T12:04:15.546Z,98912.25
2023-03-19T12:07:31.729Z,98912.92
2023-03-19T12:10:53.734Z,98906.66
2023-03-19T12:14:25.313Z,98898.52
2023-03-19T12:17:45.985Z,98891.89
2023-03-19T12:21:04.988Z,98886.46
2023-03-19T12:24:23.648Z,98891.51
2023-03-19T12:27:40.816Z,98891.04
2023-03-19T12:30:50.783Z,98889.23
2023-03-19T12:34:07.831Z,98894.64
2023-03-19T12:37:22.639Z,98881.09
2023-03-19T12:40:36.964Z,98873.67
2023-03-19T12:43:51.454Z,98870.88
2023-03-19T12:47:04.414Z,98863.42
2023-03-19T12:50:15.415Z,98855.88
2023-03-19T12:53:32.981Z,98857.57
2023-03-19T12:56:45.167Z,98849.59
2023-03-19T12:59:56.638Z,98849.70
2023-03-19T13:03:09.292Z,98849.37
2023-03-19T13:06:21.922Z,98843.66
2023-03-19T13:09:33.305Z,98844.23
2023-03-19T13:12:39.787Z,98839.77
2023-03-19T13:15:50.300Z,98838.96
2023-03-19T13:19:09.977Z,98836.48
2023-03-19T13:22:20.604Z,98831.62
2023-03-19T13:25:33.880Z,98832.40
2023-03-19T13:28:55.230Z,98828.20
2023-03-19T13:32:07.638Z,98826.14
2023-03-19T13:35:21.862Z,98825.01
2023-03-19T13:38:34.436Z,98819.78
2023-03-19T13:42:09.042Z,98817.01
2023-03-19T13:45:35.990Z,98821.60
2023-03-19T13:48:52.889Z,98819.13
2023-03-19T13:52:04.265Z,98814.38
2023-03-19T13:55:34.494Z,98818.46
2023-03-19T13:58:53.135Z,98819.00
2023-03-19T14:02:00.242Z,98815.15
2023-03-19T14:05:10.533Z,98815.11
2023-03-19T14:08:24.602Z,98811.42
2023-03-19T14:11:34.058Z,98807.06
2023-03-19T14:14:45.362Z,98806.17
2023-03-19T14:18:01.567Z,98808.34
2023-03-19T14:21:12.955Z,98804.30
2023-03-19T14:28:06.740Z,98813.55
2023-03-19T14:31:23.113Z,98810.61
2023-03-19T14:34:33.828Z,98805.86
2023-03-19T14:37:49.210Z,98802.12
2023-03-19T14:40:57.339Z,98796.27
2023-03-19T14:44:24.508Z,98799.33
2023-03-19T14:47:48.982Z,98800.95
2023-03-19T14:51:10.655Z,98804.05
2023-03-19T14:54:29.284Z,98805.60
2023-03-19T14:57:36.304Z,98807.77
2023-03-19T15:00:44.705Z,98808.40
2023-03-19T15:03:56.910Z,98813.21
2023-03-19T15:07:03.243Z,98818.60
2023-03-19T15:10:16.074Z,98819.42
2023-03-19T15:13:37.062Z,98826.70
2023-03-19T15:16:54.950Z,98824.79
2023-03-19T15:20:03.645Z,98824.06
2023-03-19T15:23:25.675Z,98822.54
2023-03-19T15:26:37.963Z,98819.77
2023-03-19T15:29:44.270Z,98817.38
2023-03-19T15:33:04.233Z,98815.83
2023-03-19T15:36:18.553Z,98813.17
2023-03-19T15:39:27.733Z,98809.84
2023-03-19T15:42:34.097Z,98809.98
2023-03-19T15:45:40.994Z,98806.06
2023-03-19T15:48:50.977Z,98805.98
2023-03-19T15:52:03.053Z,98808.38
2023-03-19T15:55:10.590Z,98817.92
2023-03-19T15:58:21.534Z,98821.96
2023-03-19T16:01:28.231Z,98825.29
2023-03-19T16:04:55.979Z,98826.84
2023-03-19T16:08:04.955Z,98829.05
2023-03-19T16:11:27.314Z,98831.93
2023-03-19T16:14:41.949Z,98840.23
2023-03-19T16:17:49.374Z,98847.39
2023-03-19T16:21:14.485Z,98851.88
2023-03-19T16:24:27.542Z,98856.13
2023-03-19T16:27:38.450Z,98860.42
2023-03-19T16:30:49.609Z,98861.36
2023-03-19T16:33:57.232Z,98865.48
2023-03-19T16:37:03.859Z,98868.49
2023-03-19T16:40:41.198Z,98871.75
2023-03-19T16:43:48.747Z,98881.88
2023-03-19T16:46:55.581Z,98889.59
2023-03-19T16:50:01.662Z,98888.16
2023-03-19T16:53:16.230Z,98877.64
2023-03-19T16:56:22.293Z,98872.54
2023-03-19T16:59:30.962Z,98875.41
2023-03-19T17:02:36.695Z,98876.02
2023-03-19T17:05:42.720Z,98882.41
2023-03-19T17:08:49.265Z,98885.42
2023-03-19T17:11:55.359Z,98883.84
2023-03-19T17:15:01.643Z,98885.58
2023-03-19T17:18:11.599Z,98888.52
2023-03-19T17:21:22.574Z,98891.73
2023-03-19T17:24:30.901Z,98899.44
2023-03-19T17:27:37.339Z,98900.10
2023-03-19T17:30:41.666Z,98898.41
2023-03-19T17:33:47.846Z,98898.63
2023-03-19T17:36:53.432Z,98896.98
2023-03-19T17:39:59.299Z,98902.42
2023-03-19T17:43:06.943Z,98902.52
2023-03-19T17:46:17.569Z,98900.42
2023-03-19T17:49:26.234Z,98902.10
2023-03-19T17:52:32.013Z,98903.23
2023-03-19T17:55:37.839Z,98900.96
2023-03-19T17:58:44.004Z,98897.38
2023-03-19T18:01:50.068Z,98901.16
2023-03-19T18:04:56.337Z,98905.49
2023-03-19T18:08:00.448Z,98905.50
2023-03-19T18:11:06.781Z,98903.84
2023-03-19T18:14:12.785Z,98908.30
2023-03-19T18:17:20.364Z,98906.92
2023-03-19T18:20:29.815Z,98904.77
2023-03-19T18:23:35.580Z,98906.03
2023-03-19T18:26:41.725Z,98911.29
2023-03-19T18:29:48.003Z,98914.44
2023-03-19T18:32:57.146Z,98918.71
2023-03-19T18:36:04.402Z,98920.05
2023-03-19T18:39:14.342Z,98920.75
2023-03-19T18:42:20.360Z,98925.38
2023-03-19T18:45:30.607Z,98923.77
2023-03-19T18:48:36.661Z,98925.19
2023-03-19T18:51:58.791Z,98927.56
2023-03-19T18:55:07.974Z,98931.20
2023-03-19T18:58:20.533Z,98936.80
2023-03-19T19:01:27.885Z,98934.83
2023-03-19T19:04:33.836Z,98933.10
2023-03-19T19:07:39.758Z,98930.13
2023-03-19T19:10:48.537Z,98925.38
2023-03-19T19:13:57.223Z,98922.05
2023-03-19T19:17:03.201Z,98919.15
2023-03-19T19:20:12.018Z,98922.99
2023-03-19T19:23:18.585Z,98929.55
2023-03-19T19:26:27.027Z,98938.57
2023-03-19T19:29:32.938Z,98936.10
2023-03-19T19:32:39.504Z,98939.13
2023-03-19T19:35:45.942Z,98940.81
2023-03-19T19:38:52.257Z,98937.14
2023-03-19T19:41:56.995Z,98938.55
2023-03-19T19:45:03.868Z,98939.27
2023-03-19T19:48:16.810Z,98940.85
2023-03-19T19:51:24.921Z,98943.36
2023-03-19T19:54:30.857Z,98948.30
2023-03-19T19:57:36.924Z,98949.21
2023-03-19T20:00:47.748Z,98950.36
2023-03-19T20:03:59.629Z,98945.05
2023-03-19T20:07:05.548Z,98943.58
2023-03-19T20:10:14.433Z,98942.91
2023-03-19T20:13:26.195Z,98944.32
2023-03-19T20:16:31.995Z,98946.77
2023-03-19T20:19:37.884Z,98948.16
2023-03-19T20:22:43.945Z,98946.23
2023-03-19T20:25:51.070Z,98944.54
2023-03-19T20:28:57.091Z,98943.55
2023-03-19T20:32:03.152Z,98941.98
2023-03-19T20:35:16.072Z,98935.00
2023-03-19T20:38:21.826Z,98934.92
2023-03-19T20:41:28.605Z,98942.05
2023-03-19T20:44:34.672Z,98946.73
2023-03-19T20:47:40.859Z,98944.89
2023-03-19T20:50:47.935Z,98941.29
2023-03-19T20:53:54.102Z,98934.90
2023-03-19T20:56:59.989Z,98930.11
2023-03-19T21:00:18.499Z,98933.94
2023-03-19T21:03:26.397Z,98934.70
2023-03-19T21:06:42.720Z,98939.45
2023-03-19T21:09:58.124Z,98937.91
2023-03-19T21:13:05.491Z,98936.98
2023-03-19T21:16:17.543Z,98937.77
2023-03-19T21:19:25.940Z,98940.25
2023-03-19T21:22:33.143Z,98940.05
2023-03-19T21:25:39.327Z,98941.02
2023-03-19T21:28:46.637Z,98944.48
2023-03-19T21:31:57.945Z,98943.80
2023-03-19T21:35:03.776Z,98949.70
2023-03-19T21:38:09.634Z,98948.42
2023-03-19T21:41:25.115Z,98947.34
2023-03-19T21:44:31.487Z,98945.09
2023-03-19T21:47:37.228Z,98942.30
2023-03-19T21:50:43.541Z,98943.85
2023-03-19T21:53:48.056Z,98945.41
2023-03-19T21:56:53.849Z,98947.02
2023-03-19T21:59:59.745Z,98949.06
2023-03-19T22:03:05.809Z,98948.98
2023-03-19T22:06:12.754Z,98951.33
2023-03-19T22:09:18.645Z,98949.98
2023-03-19T22:12:29.109Z,98949.85
2023-03-19T22:15:38.020Z,98951.36
2023-03-19T22:18:43.926Z,98953.71
2023-03-19T22:21:50.731Z,98954.68
2023-03-19T22:24:59.369Z,98953.06
2023-03-19T22:28:10.524Z,98952.27
2023-03-19T22:31:16.617Z,98952.59
2023-03-19T22:34:25.267Z,98954.40
2023-03-19T22:37:31.991Z,98950.17
2023-03-19T22:40:38.721Z,98948.56
2023-03-19T22:43:46.269Z,98947.63
2023-03-19T22:46:52.166Z,98948.98
2023-03-19T22:49:58.471Z,98947.31
2023-03-19T22:53:02.768Z,98945.69
2023-03-19T22:56:10.893Z,98947.70
2023-03-19T22:59:16.734Z,98947.31
2023-03-19T23:02:22.613Z,98948.84
2023-03-19T23:05:31.815Z,98950.00
2023-03-19T23:08:37.650Z,98949.35
2023-03-19T23:11:43.854Z,98951.41
2023-03-19T23:14:49.922Z,98951.62
2023-03-19T23:17:58.269Z,98953.38
2023-03-19T23:21:05.087Z,98955.50
2023-03-19T23:24:14.746Z,98955.45
2023-03-19T23:27:26.100Z,98952.72
2023-03-19T23:30:34.176Z,98953.66
2023-03-19T23:33:40.200Z,98951.09
2023-03-19T23:36:46.381Z,98951.46
2023-03-19T23:39:53.764Z,98948.00
2023-03-19T23:43:02.274Z,98947.31
2023-03-19T23:46:11.637Z,98938.90
2023-03-19T23:49:19.429Z,98939.41
2023-03-19T23:52:25.275Z,98937.98
2023-03-19T23:55:32.410Z,98934.70
2023-03-19T23:58:43.240Z,98935.45
